sensor_id;sensor_type;location;lat;lon;timestamp;P1;durP1;ratioP1;P2;durP2;ratioP2
11951;SDS011;6036;41.840;23.486;2022-07-17T00:00:30;5.40;;;4.95;;
11951;SDS011;6036;41.840;23.486;2022-07-17T00:02:56;6.97;;;5.75;;
11951;SDS011;6036;41.840;23.486;2022-07-17T00:05:21;6.38;;;5.05;;
11951;SDS011;6036;41.840;23.486;2022-07-17T00:07:47;5.68;;;5.07;;
11951;SDS011;6036;41.840;23.486;2022-07-17T00:10:13;5.70;;;4.93;;
11951;SDS011;6036;41.840;23.486;2022-07-17T00:12:39;5.38;;;4.80;;
11951;SDS011;6036;41.840;23.486;2022-07-17T00:15:04;5.65;;;5.18;;
11951;SDS011;6036;41.840;23.486;2022-07-17T00:17:30;4.80;;;4.40;;
11951;SDS011;6036;41.840;23.486;2022-07-17T00:19:56;6.13;;;5.15;;
11951;SDS011;6036;41.840;23.486;2022-07-17T00:22:21;4.90;;;4.50;;
11951;SDS011;6036;41.840;23.486;2022-07-17T00:24:46;4.97;;;4.57;;
11951;SDS011;6036;41.840;23.486;2022-07-17T00:27:13;5.00;;;4.45;;
11951;SDS011;6036;41.840;23.486;2022-07-17T00:29:38;5.97;;;5.43;;
11951;SDS011;6036;41.840;23.486;2022-07-17T00:32:03;5.22;;;4.72;;
11951;SDS011;6036;41.840;23.486;2022-07-17T00:34:29;4.85;;;4.40;;
11951;SDS011;6036;41.840;23.486;2022-07-17T00:36:55;5.18;;;4.68;;
11951;SDS011;6036;41.840;23.486;2022-07-17T00:39:20;5.25;;;4.85;;
11951;SDS011;6036;41.840;23.486;2022-07-17T00:41:45;5.85;;;4.65;;
11951;SDS011;6036;41.840;23.486;2022-07-17T00:44:11;5.93;;;4.93;;
11951;SDS011;6036;41.840;23.486;2022-07-17T00:46:37;7.03;;;5.32;;
11951;SDS011;6036;41.840;23.486;2022-07-17T00:49:05;6.53;;;5.93;;
11951;SDS011;6036;41.840;23.486;2022-07-17T00:51:32;6.72;;;5.45;;
11951;SDS011;6036;41.840;23.486;2022-07-17T00:53:58;7.47;;;6.20;;
11951;SDS011;6036;41.840;23.486;2022-07-17T00:56:24;6.50;;;5.82;;
11951;SDS011;6036;41.840;23.486;2022-07-17T00:58:51;6.30;;;5.70;;
11951;SDS011;6036;41.840;23.486;2022-07-17T01:01:17;7.10;;;5.20;;
11951;SDS011;6036;41.840;23.486;2022-07-17T01:03:42;6.18;;;5.57;;
11951;SDS011;6036;41.840;23.486;2022-07-17T01:06:08;5.95;;;5.32;;
11951;SDS011;6036;41.840;23.486;2022-07-17T01:08:34;5.95;;;5.45;;
11951;SDS011;6036;41.840;23.486;2022-07-17T01:11:01;5.70;;;5.20;;
11951;SDS011;6036;41.840;23.486;2022-07-17T01:13:27;6.18;;;5.50;;
11951;SDS011;6036;41.840;23.486;2022-07-17T01:15:54;6.13;;;5.53;;
11951;SDS011;6036;41.840;23.486;2022-07-17T01:18:20;5.45;;;4.85;;
11951;SDS011;6036;41.840;23.486;2022-07-17T01:20:47;6.22;;;4.68;;
11951;SDS011;6036;41.840;23.486;2022-07-17T01:23:14;5.93;;;5.32;;
11951;SDS011;6036;41.840;23.486;2022-07-17T01:25:41;5.85;;;5.25;;
11951;SDS011;6036;41.840;23.486;2022-07-17T01:28:06;5.60;;;5.18;;
11951;SDS011;6036;41.840;23.486;2022-07-17T01:30:32;7.38;;;4.70;;
11951;SDS011;6036;41.840;23.486;2022-07-17T01:32:58;5.55;;;5.05;;
11951;SDS011;6036;41.840;23.486;2022-07-17T01:35:24;5.00;;;4.60;;
11951;SDS011;6036;41.840;23.486;2022-07-17T01:37:49;5.05;;;4.65;;
11951;SDS011;6036;41.840;23.486;2022-07-17T01:40:15;5.22;;;4.78;;
11951;SDS011;6036;41.840;23.486;2022-07-17T01:42:43;5.70;;;5.10;;
11951;SDS011;6036;41.840;23.486;2022-07-17T01:45:10;6.05;;;5.55;;
11951;SDS011;6036;41.840;23.486;2022-07-17T01:47:36;5.28;;;4.80;;
11951;SDS011;6036;41.840;23.486;2022-07-17T01:50:02;5.50;;;5.05;;
11951;SDS011;6036;41.840;23.486;2022-07-17T01:52:29;5.90;;;5.10;;
11951;SDS011;6036;41.840;23.486;2022-07-17T01:54:54;4.90;;;4.50;;
11951;SDS011;6036;41.840;23.486;2022-07-17T01:57:20;6.65;;;5.97;;
11951;SDS011;6036;41.840;23.486;2022-07-17T01:59:47;6.72;;;5.95;;
11951;SDS011;6036;41.840;23.486;2022-07-17T02:02:13;7.78;;;7.07;;
11951;SDS011;6036;41.840;23.486;2022-07-17T02:04:40;6.80;;;6.20;;
11951;SDS011;6036;41.840;23.486;2022-07-17T02:07:07;6.75;;;6.25;;
11951;SDS011;6036;41.840;23.486;2022-07-17T02:09:33;6.53;;;5.93;;
11951;SDS011;6036;41.840;23.486;2022-07-17T02:11:59;5.40;;;5.00;;
11951;SDS011;6036;41.840;23.486;2022-07-17T02:14:24;5.10;;;4.70;;
11951;SDS011;6036;41.840;23.486;2022-07-17T02:16:50;5.20;;;4.80;;
11951;SDS011;6036;41.840;23.486;2022-07-17T02:19:16;5.32;;;4.70;;
11951;SDS011;6036;41.840;23.486;2022-07-17T02:21:41;6.03;;;5.53;;
11951;SDS011;6036;41.840;23.486;2022-07-17T02:24:07;5.40;;;4.80;;
11951;SDS011;6036;41.840;23.486;2022-07-17T02:26:33;4.70;;;4.40;;
11951;SDS011;6036;41.840;23.486;2022-07-17T02:28:58;5.53;;;4.72;;
11951;SDS011;6036;41.840;23.486;2022-07-17T02:31:24;5.32;;;4.57;;
11951;SDS011;6036;41.840;23.486;2022-07-17T02:33:49;4.82;;;4.32;;
11951;SDS011;6036;41.840;23.486;2022-07-17T02:36:15;5.10;;;4.70;;
11951;SDS011;6036;41.840;23.486;2022-07-17T02:38:40;6.18;;;4.95;;
11951;SDS011;6036;41.840;23.486;2022-07-17T02:41:06;6.75;;;4.50;;
11951;SDS011;6036;41.840;23.486;2022-07-17T02:43:31;6.22;;;5.63;;
11951;SDS011;6036;41.840;23.486;2022-07-17T02:45:57;8.48;;;5.90;;
11951;SDS011;6036;41.840;23.486;2022-07-17T02:48:22;6.85;;;5.43;;
11951;SDS011;6036;41.840;23.486;2022-07-17T02:50:48;5.43;;;4.93;;
11951;SDS011;6036;41.840;23.486;2022-07-17T02:53:13;4.88;;;4.32;;
11951;SDS011;6036;41.840;23.486;2022-07-17T02:55:38;5.07;;;4.68;;
11951;SDS011;6036;41.840;23.486;2022-07-17T02:58:04;6.22;;;4.50;;
11951;SDS011;6036;41.840;23.486;2022-07-17T03:00:29;4.38;;;3.97;;
11951;SDS011;6036;41.840;23.486;2022-07-17T03:02:55;4.65;;;4.03;;
11951;SDS011;6036;41.840;23.486;2022-07-17T03:05:21;4.35;;;4.05;;
11951;SDS011;6036;41.840;23.486;2022-07-17T03:07:47;5.60;;;4.45;;
11951;SDS011;6036;41.840;23.486;2022-07-17T03:10:13;4.45;;;4.07;;
11951;SDS011;6036;41.840;23.486;2022-07-17T03:12:39;4.70;;;4.30;;
11951;SDS011;6036;41.840;23.486;2022-07-17T03:15:05;4.72;;;4.32;;
11951;SDS011;6036;41.840;23.486;2022-07-17T03:17:32;5.03;;;4.63;;
11951;SDS011;6036;41.840;23.486;2022-07-17T03:19:58;5.93;;;4.40;;
11951;SDS011;6036;41.840;23.486;2022-07-17T03:22:23;6.13;;;4.53;;
11951;SDS011;6036;41.840;23.486;2022-07-17T03:24:49;5.75;;;4.13;;
11951;SDS011;6036;41.840;23.486;2022-07-17T03:27:14;4.60;;;4.20;;
11951;SDS011;6036;41.840;23.486;2022-07-17T03:29:40;4.40;;;4.10;;
11951;SDS011;6036;41.840;23.486;2022-07-17T03:32:06;4.63;;;4.22;;
11951;SDS011;6036;41.840;23.486;2022-07-17T03:34:31;6.00;;;4.82;;
11951;SDS011;6036;41.840;23.486;2022-07-17T03:36:57;7.05;;;6.22;;
11951;SDS011;6036;41.840;23.486;2022-07-17T03:39:22;6.75;;;5.68;;
11951;SDS011;6036;41.840;23.486;2022-07-17T03:41:47;6.93;;;6.20;;
11951;SDS011;6036;41.840;23.486;2022-07-17T03:44:13;6.50;;;5.90;;
11951;SDS011;6036;41.840;23.486;2022-07-17T03:46:38;8.98;;;5.82;;
11951;SDS011;6036;41.840;23.486;2022-07-17T03:49:04;5.28;;;4.55;;
11951;SDS011;6036;41.840;23.486;2022-07-17T03:51:29;6.03;;;4.30;;
11951;SDS011;6036;41.840;23.486;2022-07-17T03:53:55;4.82;;;4.43;;
11951;SDS011;6036;41.840;23.486;2022-07-17T03:56:20;7.25;;;4.10;;
11951;SDS011;6036;41.840;23.486;2022-07-17T03:58:46;5.07;;;4.00;;
11951;SDS011;6036;41.840;23.486;2022-07-17T04:01:12;4.00;;;3.60;;
11951;SDS011;6036;41.840;23.486;2022-07-17T04:03:37;5.22;;;3.88;;
11951;SDS011;6036;41.840;23.486;2022-07-17T04:06:03;3.97;;;3.63;;
11951;SDS011;6036;41.840;23.486;2022-07-17T04:08:28;3.95;;;3.13;;
11951;SDS011;6036;41.840;23.486;2022-07-17T04:10:55;7.03;;;5.50;;
11951;SDS011;6036;41.840;23.486;2022-07-17T04:13:20;6.05;;;5.13;;
11951;SDS011;6036;41.840;23.486;2022-07-17T04:15:45;9.32;;;5.15;;
11951;SDS011;6036;41.840;23.486;2022-07-17T04:18:14;8.27;;;6.38;;
11951;SDS011;6036;41.840;23.486;2022-07-17T04:20:43;7.97;;;7.20;;
11951;SDS011;6036;41.840;23.486;2022-07-17T04:23:09;8.65;;;7.75;;
11951;SDS011;6036;41.840;23.486;2022-07-17T04:25:34;8.80;;;8.00;;
11951;SDS011;6036;41.840;23.486;2022-07-17T04:28:00;9.05;;;7.88;;
11951;SDS011;6036;41.840;23.486;2022-07-17T04:30:25;8.90;;;8.00;;
11951;SDS011;6036;41.840;23.486;2022-07-17T04:32:50;8.13;;;7.38;;
11951;SDS011;6036;41.840;23.486;2022-07-17T04:35:16;8.32;;;7.43;;
11951;SDS011;6036;41.840;23.486;2022-07-17T04:37:41;8.55;;;7.60;;
11951;SDS011;6036;41.840;23.486;2022-07-17T04:40:07;8.05;;;7.28;;
11951;SDS011;6036;41.840;23.486;2022-07-17T04:42:33;8.77;;;7.88;;
11951;SDS011;6036;41.840;23.486;2022-07-17T04:44:59;7.93;;;7.20;;
11951;SDS011;6036;41.840;23.486;2022-07-17T04:47:25;7.93;;;7.10;;
11951;SDS011;6036;41.840;23.486;2022-07-17T04:49:50;7.50;;;6.80;;
11951;SDS011;6036;41.840;23.486;2022-07-17T04:52:15;7.25;;;6.65;;
11951;SDS011;6036;41.840;23.486;2022-07-17T04:54:41;6.60;;;6.10;;
11951;SDS011;6036;41.840;23.486;2022-07-17T04:57:06;7.22;;;6.53;;
11951;SDS011;6036;41.840;23.486;2022-07-17T04:59:32;8.18;;;6.72;;
11951;SDS011;6036;41.840;23.486;2022-07-17T05:01:57;9.27;;;8.38;;
11951;SDS011;6036;41.840;23.486;2022-07-17T05:04:23;12.90;;;9.48;;
11951;SDS011;6036;41.840;23.486;2022-07-17T05:06:48;11.90;;;10.85;;
11951;SDS011;6036;41.840;23.486;2022-07-17T05:09:14;10.88;;;9.88;;
11951;SDS011;6036;41.840;23.486;2022-07-17T05:11:39;11.32;;;10.20;;
11951;SDS011;6036;41.840;23.486;2022-07-17T05:14:05;18.40;;;15.30;;
11951;SDS011;6036;41.840;23.486;2022-07-17T05:16:30;20.13;;;14.57;;
11951;SDS011;6036;41.840;23.486;2022-07-17T05:18:55;13.75;;;11.98;;
11951;SDS011;6036;41.840;23.486;2022-07-17T05:21:21;12.20;;;10.00;;
11951;SDS011;6036;41.840;23.486;2022-07-17T05:23:46;8.32;;;7.38;;
11951;SDS011;6036;41.840;23.486;2022-07-17T05:26:12;7.05;;;6.43;;
11951;SDS011;6036;41.840;23.486;2022-07-17T05:28:37;7.05;;;5.88;;
11951;SDS011;6036;41.840;23.486;2022-07-17T05:31:03;6.90;;;5.25;;
11951;SDS011;6036;41.840;23.486;2022-07-17T05:33:28;6.10;;;5.55;;
11951;SDS011;6036;41.840;23.486;2022-07-17T05:35:53;6.38;;;4.85;;
11951;SDS011;6036;41.840;23.486;2022-07-17T05:38:19;6.07;;;4.78;;
11951;SDS011;6036;41.840;23.486;2022-07-17T05:40:44;4.93;;;4.53;;
11951;SDS011;6036;41.840;23.486;2022-07-17T05:43:10;5.45;;;4.63;;
11951;SDS011;6036;41.840;23.486;2022-07-17T05:45:35;4.93;;;4.45;;
11951;SDS011;6036;41.840;23.486;2022-07-17T05:48:00;6.50;;;5.70;;
11951;SDS011;6036;41.840;23.486;2022-07-17T05:50:26;9.23;;;8.32;;
11951;SDS011;6036;41.840;23.486;2022-07-17T05:52:51;10.30;;;9.30;;
11951;SDS011;6036;41.840;23.486;2022-07-17T05:55:17;10.35;;;8.73;;
11951;SDS011;6036;41.840;23.486;2022-07-17T05:57:43;9.85;;;8.85;;
11951;SDS011;6036;41.840;23.486;2022-07-17T06:00:09;8.95;;;8.00;;
11951;SDS011;6036;41.840;23.486;2022-07-17T06:02:35;9.00;;;7.45;;
11951;SDS011;6036;41.840;23.486;2022-07-17T06:05:00;8.23;;;7.50;;
11951;SDS011;6036;41.840;23.486;2022-07-17T06:07:26;7.20;;;6.50;;
11951;SDS011;6036;41.840;23.486;2022-07-17T06:09:51;8.20;;;6.20;;
11951;SDS011;6036;41.840;23.486;2022-07-17T06:12:17;6.53;;;6.03;;
11951;SDS011;6036;41.840;23.486;2022-07-17T06:14:42;8.15;;;5.28;;
11951;SDS011;6036;41.840;23.486;2022-07-17T06:17:07;5.88;;;5.38;;
11951;SDS011;6036;41.840;23.486;2022-07-17T06:19:33;9.68;;;6.93;;
11951;SDS011;6036;41.840;23.486;2022-07-17T06:21:58;8.32;;;6.78;;
11951;SDS011;6036;41.840;23.486;2022-07-17T06:24:24;8.98;;;7.35;;
11951;SDS011;6036;41.840;23.486;2022-07-17T06:26:49;7.40;;;6.68;;
11951;SDS011;6036;41.840;23.486;2022-07-17T06:29:16;7.85;;;6.72;;
11951;SDS011;6036;41.840;23.486;2022-07-17T06:31:41;7.40;;;6.35;;
11951;SDS011;6036;41.840;23.486;2022-07-17T06:34:07;19.77;;;6.53;;
11951;SDS011;6036;41.840;23.486;2022-07-17T06:36:32;6.57;;;5.93;;
11951;SDS011;6036;41.840;23.486;2022-07-17T06:38:57;6.55;;;5.93;;
11951;SDS011;6036;41.840;23.486;2022-07-17T06:41:23;6.22;;;5.63;;
11951;SDS011;6036;41.840;23.486;2022-07-17T06:43:48;8.10;;;5.18;;
11951;SDS011;6036;41.840;23.486;2022-07-17T06:46:14;7.05;;;4.90;;
11951;SDS011;6036;41.840;23.486;2022-07-17T06:48:39;6.35;;;5.75;;
11951;SDS011;6036;41.840;23.486;2022-07-17T06:51:04;6.40;;;5.15;;
11951;SDS011;6036;41.840;23.486;2022-07-17T06:53:30;5.60;;;5.10;;
11951;SDS011;6036;41.840;23.486;2022-07-17T06:55:55;8.70;;;5.82;;
11951;SDS011;6036;41.840;23.486;2022-07-17T06:58:21;5.80;;;5.30;;
11951;SDS011;6036;41.840;23.486;2022-07-17T07:00:46;5.63;;;4.95;;
11951;SDS011;6036;41.840;23.486;2022-07-17T07:03:11;5.07;;;4.57;;
11951;SDS011;6036;41.840;23.486;2022-07-17T07:05:37;6.00;;;5.60;;
11951;SDS011;6036;41.840;23.486;2022-07-17T07:08:02;5.65;;;5.15;;
11951;SDS011;6036;41.840;23.486;2022-07-17T07:10:28;5.85;;;5.30;;
11951;SDS011;6036;41.840;23.486;2022-07-17T07:12:54;8.15;;;6.07;;
11951;SDS011;6036;41.840;23.486;2022-07-17T07:15:19;5.55;;;5.22;;
11951;SDS011;6036;41.840;23.486;2022-07-17T07:17:45;5.43;;;4.93;;
11951;SDS011;6036;41.840;23.486;2022-07-17T07:20:10;4.80;;;4.50;;
11951;SDS011;6036;41.840;23.486;2022-07-17T07:22:36;4.85;;;4.55;;
11951;SDS011;6036;41.840;23.486;2022-07-17T07:25:02;5.10;;;4.70;;
11951;SDS011;6036;41.840;23.486;2022-07-17T07:27:28;5.03;;;4.63;;
11951;SDS011;6036;41.840;23.486;2022-07-17T07:29:54;4.95;;;4.55;;
11951;SDS011;6036;41.840;23.486;2022-07-17T07:32:19;5.57;;;5.18;;
11951;SDS011;6036;41.840;23.486;2022-07-17T07:34:45;5.57;;;5.22;;
11951;SDS011;6036;41.840;23.486;2022-07-17T07:37:10;4.70;;;4.40;;
11951;SDS011;6036;41.840;23.486;2022-07-17T07:39:36;10.02;;;4.90;;
11951;SDS011;6036;41.840;23.486;2022-07-17T07:42:01;5.45;;;5.05;;
11951;SDS011;6036;41.840;23.486;2022-07-17T07:44:27;4.55;;;4.25;;
11951;SDS011;6036;41.840;23.486;2022-07-17T07:46:52;4.70;;;4.40;;
11951;SDS011;6036;41.840;23.486;2022-07-17T07:49:17;4.75;;;4.45;;
11951;SDS011;6036;41.840;23.486;2022-07-17T07:51:43;7.03;;;4.90;;
11951;SDS011;6036;41.840;23.486;2022-07-17T07:54:09;5.68;;;5.18;;
11951;SDS011;6036;41.840;23.486;2022-07-17T07:56:34;5.65;;;5.18;;
11951;SDS011;6036;41.840;23.486;2022-07-17T07:59:01;5.22;;;4.85;;
11951;SDS011;6036;41.840;23.486;2022-07-17T08:01:26;5.30;;;4.90;;
11951;SDS011;6036;41.840;23.486;2022-07-17T08:03:52;5.00;;;4.60;;
11951;SDS011;6036;41.840;23.486;2022-07-17T08:06:17;5.53;;;4.70;;
11951;SDS011;6036;41.840;23.486;2022-07-17T08:08:42;4.13;;;3.83;;
11951;SDS011;6036;41.840;23.486;2022-07-17T08:11:08;4.57;;;4.10;;
11951;SDS011;6036;41.840;23.486;2022-07-17T08:13:33;5.10;;;4.70;;
11951;SDS011;6036;41.840;23.486;2022-07-17T08:15:59;4.90;;;4.60;;
11951;SDS011;6036;41.840;23.486;2022-07-17T08:18:25;4.72;;;4.32;;
11951;SDS011;6036;41.840;23.486;2022-07-17T08:20:51;4.60;;;4.22;;
11951;SDS011;6036;41.840;23.486;2022-07-17T08:23:17;4.68;;;4.38;;
11951;SDS011;6036;41.840;23.486;2022-07-17T08:25:43;4.30;;;4.00;;
11951;SDS011;6036;41.840;23.486;2022-07-17T08:28:09;4.43;;;4.03;;
11951;SDS011;6036;41.840;23.486;2022-07-17T08:30:35;4.60;;;4.30;;
11951;SDS011;6036;41.840;23.486;2022-07-17T08:33:05;4.82;;;4.10;;
11951;SDS011;6036;41.840;23.486;2022-07-17T08:35:31;4.25;;;3.85;;
11951;SDS011;6036;41.840;23.486;2022-07-17T08:37:57;3.75;;;3.55;;
11951;SDS011;6036;41.840;23.486;2022-07-17T08:40:26;4.35;;;3.83;;
11951;SDS011;6036;41.840;23.486;2022-07-17T08:42:54;5.65;;;5.15;;
11951;SDS011;6036;41.840;23.486;2022-07-17T08:45:21;3.70;;;3.40;;
11951;SDS011;6036;41.840;23.486;2022-07-17T08:47:47;3.92;;;3.72;;
11951;SDS011;6036;41.840;23.486;2022-07-17T08:50:14;3.92;;;3.42;;
11951;SDS011;6036;41.840;23.486;2022-07-17T08:52:40;3.97;;;3.67;;
11951;SDS011;6036;41.840;23.486;2022-07-17T08:55:07;4.38;;;4.00;;
11951;SDS011;6036;41.840;23.486;2022-07-17T08:57:38;6.07;;;5.65;;
11951;SDS011;6036;41.840;23.486;2022-07-17T09:00:05;4.68;;;3.53;;
11951;SDS011;6036;41.840;23.486;2022-07-17T09:02:31;4.45;;;4.05;;
11951;SDS011;6036;41.840;23.486;2022-07-17T09:04:57;4.00;;;3.70;;
11951;SDS011;6036;41.840;23.486;2022-07-17T09:07:22;4.35;;;4.05;;
11951;SDS011;6036;41.840;23.486;2022-07-17T09:09:51;4.70;;;4.30;;
11951;SDS011;6036;41.840;23.486;2022-07-17T09:12:17;4.88;;;4.40;;
11951;SDS011;6036;41.840;23.486;2022-07-17T09:14:42;5.35;;;4.43;;
11951;SDS011;6036;41.840;23.486;2022-07-17T09:17:09;4.70;;;4.40;;
11951;SDS011;6036;41.840;23.486;2022-07-17T09:27:14;4.95;;;4.57;;
11951;SDS011;6036;41.840;23.486;2022-07-17T09:30:04;5.80;;;5.25;;
11951;SDS011;6036;41.840;23.486;2022-07-17T09:32:35;6.82;;;4.50;;
11951;SDS011;6036;41.840;23.486;2022-07-17T09:35:07;4.78;;;4.47;;
11951;SDS011;6036;41.840;23.486;2022-07-17T09:37:34;4.65;;;4.07;;
11951;SDS011;6036;41.840;23.486;2022-07-17T09:40:00;4.30;;;4.03;;
11951;SDS011;6036;41.840;23.486;2022-07-17T09:42:28;4.78;;;4.38;;
11951;SDS011;6036;41.840;23.486;2022-07-17T09:44:58;6.00;;;3.97;;
11951;SDS011;6036;41.840;23.486;2022-07-17T09:47:30;4.35;;;4.05;;
11951;SDS011;6036;41.840;23.486;2022-07-17T09:49:58;6.22;;;4.20;;
11951;SDS011;6036;41.840;23.486;2022-07-17T09:52:28;5.50;;;4.57;;
11951;SDS011;6036;41.840;23.486;2022-07-17T09:54:55;5.07;;;4.68;;
11951;SDS011;6036;41.840;23.486;2022-07-17T09:57:24;4.75;;;3.90;;
11951;SDS011;6036;41.840;23.486;2022-07-17T09:59:51;5.78;;;5.18;;
11951;SDS011;6036;41.840;23.486;2022-07-17T10:02:19;5.50;;;4.00;;
11951;SDS011;6036;41.840;23.486;2022-07-17T10:04:46;4.82;;;4.35;;
11951;SDS011;6036;41.840;23.486;2022-07-17T10:07:12;4.50;;;4.10;;
11951;SDS011;6036;41.840;23.486;2022-07-17T10:09:38;4.47;;;4.18;;
11951;SDS011;6036;41.840;23.486;2022-07-17T10:12:05;5.18;;;4.30;;
11951;SDS011;6036;41.840;23.486;2022-07-17T10:14:31;5.50;;;3.95;;
11951;SDS011;6036;41.840;23.486;2022-07-17T10:17:11;6.75;;;3.95;;
11951;SDS011;6036;41.840;23.486;2022-07-17T10:19:52;6.35;;;3.90;;
11951;SDS011;6036;41.840;23.486;2022-07-17T10:22:19;4.20;;;3.90;;
11951;SDS011;6036;41.840;23.486;2022-07-17T10:24:55;4.57;;;3.95;;
11951;SDS011;6036;41.840;23.486;2022-07-17T10:27:23;3.70;;;3.40;;
11951;SDS011;6036;41.840;23.486;2022-07-17T10:30:06;4.38;;;3.97;;
11951;SDS011;6036;41.840;23.486;2022-07-17T10:32:36;3.97;;;3.67;;
11951;SDS011;6036;41.840;23.486;2022-07-17T10:35:06;3.65;;;3.35;;
11951;SDS011;6036;41.840;23.486;2022-07-17T10:45:20;3.83;;;3.53;;
11951;SDS011;6036;41.840;23.486;2022-07-17T10:48:00;3.28;;;3.08;;
11951;SDS011;6036;41.840;23.486;2022-07-17T10:55:34;3.70;;;3.40;;
11951;SDS011;6036;41.840;23.486;2022-07-17T10:58:02;3.20;;;3.00;;
11951;SDS011;6036;41.840;23.486;2022-07-17T11:00:28;3.50;;;3.25;;
11951;SDS011;6036;41.840;23.486;2022-07-17T11:02:54;3.28;;;3.08;;
11951;SDS011;6036;41.840;23.486;2022-07-17T11:05:20;3.30;;;3.10;;
11951;SDS011;6036;41.840;23.486;2022-07-17T11:07:56;3.55;;;3.22;;
11951;SDS011;6036;41.840;23.486;2022-07-17T11:10:25;3.70;;;3.42;;
11951;SDS011;6036;41.840;23.486;2022-07-17T11:13:08;4.00;;;2.78;;
11951;SDS011;6036;41.840;23.486;2022-07-17T11:15:39;4.57;;;3.13;;
11951;SDS011;6036;41.840;23.486;2022-07-17T11:18:09;3.28;;;3.05;;
11951;SDS011;6036;41.840;23.486;2022-07-17T11:20:55;3.20;;;3.00;;
11951;SDS011;6036;41.840;23.486;2022-07-17T11:23:23;3.58;;;3.38;;
11951;SDS011;6036;41.840;23.486;2022-07-17T11:28:42;2.90;;;2.80;;
11951;SDS011;6036;41.840;23.486;2022-07-17T11:33:48;3.92;;;3.63;;
11951;SDS011;6036;41.840;23.486;2022-07-17T11:38:49;3.83;;;3.60;;
11951;SDS011;6036;41.840;23.486;2022-07-17T11:41:16;4.53;;;3.70;;
11951;SDS011;6036;41.840;23.486;2022-07-17T11:43:43;3.65;;;3.35;;
11951;SDS011;6036;41.840;23.486;2022-07-17T11:46:09;3.70;;;3.40;;
11951;SDS011;6036;41.840;23.486;2022-07-17T11:48:34;4.93;;;3.00;;
11951;SDS011;6036;41.840;23.486;2022-07-17T11:51:00;3.55;;;3.25;;
11951;SDS011;6036;41.840;23.486;2022-07-17T11:53:36;3.45;;;3.25;;
11951;SDS011;6036;41.840;23.486;2022-07-17T11:56:03;3.47;;;3.20;;
11951;SDS011;6036;41.840;23.486;2022-07-17T11:58:40;2.90;;;1.60;;
11951;SDS011;6036;41.840;23.486;2022-07-17T12:01:07;2.33;;;1.65;;
11951;SDS011;6036;41.840;23.486;2022-07-17T12:03:32;2.47;;;2.03;;
11951;SDS011;6036;41.840;23.486;2022-07-17T12:05:58;4.03;;;2.00;;
11951;SDS011;6036;41.840;23.486;2022-07-17T12:08:24;1.95;;;1.73;;
11951;SDS011;6036;41.840;23.486;2022-07-17T12:10:59;2.15;;;1.40;;
11951;SDS011;6036;41.840;23.486;2022-07-17T12:13:36;3.22;;;1.80;;
11951;SDS011;6036;41.840;23.486;2022-07-17T12:16:19;2.13;;;1.90;;
11951;SDS011;6036;41.840;23.486;2022-07-17T12:27:01;3.08;;;1.80;;
11951;SDS011;6036;41.840;23.486;2022-07-17T12:29:29;1.75;;;1.65;;
11951;SDS011;6036;41.840;23.486;2022-07-17T12:34:35;5.18;;;1.77;;
11951;SDS011;6036;41.840;23.486;2022-07-17T12:37:02;3.55;;;2.05;;
11951;SDS011;6036;41.840;23.486;2022-07-17T12:39:28;4.07;;;2.00;;
11951;SDS011;6036;41.840;23.486;2022-07-17T12:41:53;1.92;;;1.52;;
11951;SDS011;6036;41.840;23.486;2022-07-17T12:44:19;1.90;;;1.70;;
11951;SDS011;6036;41.840;23.486;2022-07-17T12:46:45;2.38;;;1.60;;
11951;SDS011;6036;41.840;23.486;2022-07-17T12:49:10;1.75;;;1.60;;
11951;SDS011;6036;41.840;23.486;2022-07-17T12:51:35;2.05;;;1.52;;
11951;SDS011;6036;41.840;23.486;2022-07-17T12:54:01;1.92;;;1.52;;
11951;SDS011;6036;41.840;23.486;2022-07-17T12:56:26;1.85;;;1.73;;
11951;SDS011;6036;41.840;23.486;2022-07-17T12:58:52;3.92;;;2.00;;
11951;SDS011;6036;41.840;23.486;2022-07-17T13:01:18;2.60;;;1.50;;
11951;SDS011;6036;41.840;23.486;2022-07-17T13:03:43;1.55;;;1.45;;
11951;SDS011;6036;41.840;23.486;2022-07-17T13:06:09;2.22;;;1.48;;
11951;SDS011;6036;41.840;23.486;2022-07-17T13:08:35;2.20;;;1.60;;
11951;SDS011;6036;41.840;23.486;2022-07-17T13:11:01;1.70;;;1.50;;
11951;SDS011;6036;41.840;23.486;2022-07-17T13:13:27;2.70;;;1.75;;
11951;SDS011;6036;41.840;23.486;2022-07-17T13:15:54;2.10;;;1.50;;
11951;SDS011;6036;41.840;23.486;2022-07-17T13:18:20;4.47;;;1.50;;
11951;SDS011;6036;41.840;23.486;2022-07-17T13:20:46;3.22;;;1.35;;
11951;SDS011;6036;41.840;23.486;2022-07-17T13:23:12;1.77;;;1.67;;
11951;SDS011;6036;41.840;23.486;2022-07-17T13:25:37;1.50;;;1.25;;
11951;SDS011;6036;41.840;23.486;2022-07-17T13:28:03;1.90;;;1.35;;
11951;SDS011;6036;41.840;23.486;2022-07-17T13:30:30;1.55;;;1.45;;
11951;SDS011;6036;41.840;23.486;2022-07-17T13:32:55;1.73;;;1.58;;
11951;SDS011;6036;41.840;23.486;2022-07-17T13:35:21;3.55;;;1.80;;
11951;SDS011;6036;41.840;23.486;2022-07-17T13:37:46;1.55;;;1.45;;
11951;SDS011;6036;41.840;23.486;2022-07-17T13:40:12;2.63;;;1.40;;
11951;SDS011;6036;41.840;23.486;2022-07-17T13:42:38;2.03;;;1.83;;
11951;SDS011;6036;41.840;23.486;2022-07-17T13:45:03;2.40;;;1.77;;
11951;SDS011;6036;41.840;23.486;2022-07-17T13:47:29;2.00;;;1.80;;
11951;SDS011;6036;41.840;23.486;2022-07-17T13:49:55;1.77;;;1.67;;
11951;SDS011;6036;41.840;23.486;2022-07-17T13:52:21;3.58;;;1.50;;
11951;SDS011;6036;41.840;23.486;2022-07-17T13:54:47;3.53;;;1.83;;
11951;SDS011;6036;41.840;23.486;2022-07-17T13:57:12;4.43;;;1.77;;
11951;SDS011;6036;41.840;23.486;2022-07-17T13:59:38;2.45;;;1.98;;
11951;SDS011;6036;41.840;23.486;2022-07-17T14:02:04;2.55;;;1.75;;
11951;SDS011;6036;41.840;23.486;2022-07-17T14:04:32;2.57;;;1.70;;
11951;SDS011;6036;41.840;23.486;2022-07-17T14:06:57;2.33;;;1.90;;
11951;SDS011;6036;41.840;23.486;2022-07-17T14:09:23;4.72;;;1.80;;
11951;SDS011;6036;41.840;23.486;2022-07-17T14:11:48;1.67;;;1.58;;
11951;SDS011;6036;41.840;23.486;2022-07-17T14:14:14;1.67;;;1.45;;
11951;SDS011;6036;41.840;23.486;2022-07-17T14:16:39;3.28;;;2.05;;
11951;SDS011;6036;41.840;23.486;2022-07-17T14:19:04;2.75;;;1.88;;
11951;SDS011;6036;41.840;23.486;2022-07-17T14:21:31;2.20;;;1.80;;
11951;SDS011;6036;41.840;23.486;2022-07-17T14:23:58;2.80;;;2.13;;
11951;SDS011;6036;41.840;23.486;2022-07-17T14:26:24;1.88;;;1.73;;
11951;SDS011;6036;41.840;23.486;2022-07-17T14:28:50;3.28;;;2.10;;
11951;SDS011;6036;41.840;23.486;2022-07-17T14:31:16;2.53;;;1.63;;
11951;SDS011;6036;41.840;23.486;2022-07-17T14:33:42;1.90;;;1.80;;
11951;SDS011;6036;41.840;23.486;2022-07-17T14:36:08;2.17;;;1.95;;
11951;SDS011;6036;41.840;23.486;2022-07-17T14:38:34;3.50;;;1.92;;
11951;SDS011;6036;41.840;23.486;2022-07-17T14:41:00;6.97;;;1.60;;
11951;SDS011;6036;41.840;23.486;2022-07-17T14:43:25;1.92;;;1.75;;
11951;SDS011;6036;41.840;23.486;2022-07-17T14:45:52;2.05;;;1.88;;
11951;SDS011;6036;41.840;23.486;2022-07-17T14:48:18;2.92;;;1.67;;
11951;SDS011;6036;41.840;23.486;2022-07-17T14:50:43;1.73;;;1.63;;
11951;SDS011;6036;41.840;23.486;2022-07-17T14:53:09;1.95;;;1.75;;
11951;SDS011;6036;41.840;23.486;2022-07-17T14:55:34;2.50;;;1.92;;
11951;SDS011;6036;41.840;23.486;2022-07-17T14:57:59;2.03;;;1.30;;
11951;SDS011;6036;41.840;23.486;2022-07-17T15:00:25;3.45;;;1.98;;
11951;SDS011;6036;41.840;23.486;2022-07-17T15:02:50;1.58;;;1.48;;
11951;SDS011;6036;41.840;23.486;2022-07-17T15:05:16;2.08;;;1.88;;
11951;SDS011;6036;41.840;23.486;2022-07-17T15:07:41;1.48;;;1.38;;
11951;SDS011;6036;41.840;23.486;2022-07-17T15:10:07;1.90;;;1.65;;
11951;SDS011;6036;41.840;23.486;2022-07-17T15:12:32;2.60;;;1.60;;
11951;SDS011;6036;41.840;23.486;2022-07-17T15:14:58;3.58;;;1.85;;
11951;SDS011;6036;41.840;23.486;2022-07-17T15:17:23;1.95;;;1.52;;
11951;SDS011;6036;41.840;23.486;2022-07-17T15:19:49;2.15;;;1.90;;
11951;SDS011;6036;41.840;23.486;2022-07-17T15:22:14;1.50;;;1.33;;